sensor_id;sensor_type;location;lat;lon;timestamp;pressure;altitude;pressure_sealevel;temperature;humidity
71457;BME280;59263;48.160;11.752;2022-11-20T00:00:52;95366.75;;;4.31;100.00
71457;BME280;59263;48.160;11.752;2022-11-20T00:03:18;95345.09;;;4.24;100.00
71457;BME280;59263;48.160;11.752;2022-11-20T00:05:44;95350.78;;;4.28;100.00
71457;BME280;59263;48.160;11.752;2022-11-20T00:08:09;95336.94;;;4.19;100.00
71457;BME280;59263;48.160;11.752;2022-11-20T00:10:39;95390.16;;;4.49;100.00
71457;BME280;59263;48.160;11.752;2022-11-20T00:13:05;95352.19;;;4.32;100.00
71457;BME280;59263;48.160;11.752;2022-11-20T00:15:31;95388.50;;;4.48;100.00
71457;BME280;59263;48.160;11.752;2022-11-20T00:17:56;95374.19;;;4.46;100.00
71457;BME280;59263;48.160;11.752;2022-11-20T00:20:22;95388.28;;;4.51;100.00
71457;BME280;59263;48.160;11.752;2022-11-20T00:22:47;95363.81;;;4.36;100.00
71457;BME280;59263;48.160;11.752;2022-11-20T00:25:13;95366.84;;;4.41;100.00
71457;BME280;59263;48.160;11.752;2022-11-20T00:27:38;95377.09;;;4.52;100.00
71457;BME280;59263;48.160;11.752;2022-11-20T00:30:05;95352.41;;;4.29;100.00
71457;BME280;59263;48.160;11.752;2022-11-20T00:32:30;95383.38;;;4.48;100.00
71457;BME280;59263;48.160;11.752;2022-11-20T00:34:55;95388.03;;;4.54;100.00
71457;BME280;59263;48.160;11.752;2022-11-20T00:37:21;95374.44;;;4.43;100.00
71457;BME280;59263;48.160;11.752;2022-11-20T00:39:46;95382.47;;;4.49;100.00
71457;BME280;59263;48.160;11.752;2022-11-20T00:42:12;95394.56;;;4.58;100.00
71457;BME280;59263;48.160;11.752;2022-11-20T00:44:40;95390.03;;;4.51;100.00
71457;BME280;59263;48.160;11.752;2022-11-20T00:47:05;95373.38;;;4.45;100.00
71457;BME280;59263;48.160;11.752;2022-11-20T00:49:33;95388.03;;;4.54;100.00
71457;BME280;59263;48.160;11.752;2022-11-20T00:51:58;95371.97;;;4.41;100.00
71457;BME280;59263;48.160;11.752;2022-11-20T00:54:27;95388.19;;;4.53;100.00
71457;BME280;59263;48.160;11.752;2022-11-20T00:56:55;95373.03;;;4.39;100.00
71457;BME280;59263;48.160;11.752;2022-11-20T00:59:20;95393.53;;;4.50;100.00
71457;BME280;59263;48.160;11.752;2022-11-20T01:01:45;95388.03;;;4.32;100.00
71457;BME280;59263;48.160;11.752;2022-11-20T01:04:11;95418.06;;;4.41;100.00
71457;BME280;59263;48.160;11.752;2022-11-20T01:06:39;95410.97;;;4.33;100.00
71457;BME280;59263;48.160;11.752;2022-11-20T01:09:11;95413.28;;;4.25;100.00
71457;BME280;59263;48.160;11.752;2022-11-20T01:11:41;95408.88;;;4.16;100.00
71457;BME280;59263;48.160;11.752;2022-11-20T01:14:17;95380.31;;;3.98;100.00
71457;BME280;59263;48.160;11.752;2022-11-20T01:16:46;95396.63;;;4.08;100.00
71457;BME280;59263;48.160;11.752;2022-11-20T01:19:16;95399.88;;;4.10;100.00
71457;BME280;59263;48.160;11.752;2022-11-20T01:21:42;95393.59;;;4.03;100.00
71457;BME280;59263;48.160;11.752;2022-11-20T01:24:12;95384.03;;;3.94;100.00
71457;BME280;59263;48.160;11.752;2022-11-20T01:26:39;95420.72;;;4.17;100.00
71457;BME280;59263;48.160;11.752;2022-11-20T01:34:14;95409.69;;;4.17;100.00
71457;BME280;59263;48.160;11.752;2022-11-20T01:36:41;95396.03;;;4.05;100.00
71457;BME280;59263;48.160;11.752;2022-11-20T01:39:13;95418.03;;;4.19;100.00
71457;BME280;59263;48.160;11.752;2022-11-20T01:41:51;95378.69;;;3.97;100.00
71457;BME280;59263;48.160;11.752;2022-11-20T01:44:56;95406.78;;;4.21;100.00
71457;BME280;59263;48.160;11.752;2022-11-20T01:47:44;95412.00;;;4.20;100.00
71457;BME280;59263;48.160;11.752;2022-11-20T01:50:22;95420.88;;;4.27;100.00
71457;BME280;59263;48.160;11.752;2022-11-20T01:52:53;95398.63;;;4.16;100.00
71457;BME280;59263;48.160;11.752;2022-11-20T01:55:24;95403.75;;;4.16;100.00
71457;BME280;59263;48.160;11.752;2022-11-20T01:57:51;95408.38;;;4.22;100.00
71457;BME280;59263;48.160;11.752;2022-11-20T02:00:18;95410.13;;;4.22;100.00
71457;BME280;59263;48.160;11.752;2022-11-20T02:02:49;95401.06;;;4.18;100.00
71457;BME280;59263;48.160;11.752;2022-11-20T02:05:22;95408.75;;;4.29;100.00
71457;BME280;59263;48.160;11.752;2022-11-20T02:07:50;95384.75;;;4.07;100.00
71457;BME280;59263;48.160;11.752;2022-11-20T02:10:16;95398.28;;;4.21;100.00
71457;BME280;59263;48.160;11.752;2022-11-20T02:12:41;95409.22;;;4.23;100.00
71457;BME280;59263;48.160;11.752;2022-11-20T02:15:25;95397.81;;;4.16;100.00
71457;BME280;59263;48.160;11.752;2022-11-20T02:17:50;95397.81;;;4.16;100.00
71457;BME280;59263;48.160;11.752;2022-11-20T02:20:16;95408.06;;;4.16;100.00
71457;BME280;59263;48.160;11.752;2022-11-20T02:23:03;95414.09;;;4.15;100.00
71457;BME280;59263;48.160;11.752;2022-11-20T02:25:30;95414.56;;;4.20;100.00
71457;BME280;59263;48.160;11.752;2022-11-20T02:27:57;95420.50;;;4.20;100.00
71457;BME280;59263;48.160;11.752;2022-11-20T02:30:23;95399.06;;;4.10;100.00
71457;BME280;59263;48.160;11.752;2022-11-20T02:32:48;95407.09;;;4.05;100.00
71457;BME280;59263;48.160;11.752;2022-11-20T02:37:48;95429.72;;;4.23;100.00
71457;BME280;59263;48.160;11.752;2022-11-20T02:40:14;95397.88;;;4.03;100.00
71457;BME280;59263;48.160;11.752;2022-11-20T02:42:40;95415.97;;;4.12;100.00
71457;BME280;59263;48.160;11.752;2022-11-20T02:45:06;95421.09;;;4.24;100.00
71457;BME280;59263;48.160;11.752;2022-11-20T02:47:32;95391.75;;;4.05;100.00
71457;BME280;59263;48.160;11.752;2022-11-20T02:49:57;95434.84;;;4.23;100.00
71457;BME280;59263;48.160;11.752;2022-11-20T02:52:23;95417.00;;;4.21;100.00
71457;BME280;59263;48.160;11.752;2022-11-20T02:54:48;95427.63;;;4.28;100.00
71457;BME280;59263;48.160;11.752;2022-11-20T02:57:13;95401.50;;;4.11;100.00
71457;BME280;59263;48.160;11.752;2022-11-20T02:59:39;95423.19;;;4.30;100.00
71457;BME280;59263;48.160;11.752;2022-11-20T03:02:04;95397.31;;;4.10;100.00
71457;BME280;59263;48.160;11.752;2022-11-20T03:04:30;95423.53;;;4.25;100.00
71457;BME280;59263;48.160;11.752;2022-11-20T03:06:55;95410.25;;;4.20;100.00
71457;BME280;59263;48.160;11.752;2022-11-20T03:09:20;95413.06;;;4.17;100.00
71457;BME280;59263;48.160;11.752;2022-11-20T03:11:46;95386.63;;;4.05;100.00
71457;BME280;59263;48.160;11.752;2022-11-20T03:14:11;95418.19;;;4.28;100.00
71457;BME280;59263;48.160;11.752;2022-11-20T03:16:37;95385.00;;;4.04;100.00
71457;BME280;59263;48.160;11.752;2022-11-20T03:19:02;95422.38;;;4.29;100.00
71457;BME280;59263;48.160;11.752;2022-11-20T03:21:27;95385.34;;;4.11;100.00
71457;BME280;59263;48.160;11.752;2022-11-20T03:23:53;95392.91;;;4.12;100.00
71457;BME280;59263;48.160;11.752;2022-11-20T03:26:24;95416.22;;;4.32;100.00
71457;BME280;59263;48.160;11.752;2022-11-20T03:28:52;95423.91;;;4.32;100.00
71457;BME280;59263;48.160;11.752;2022-11-20T03:31:21;95414.34;;;4.23;100.00
71457;BME280;59263;48.160;11.752;2022-11-20T03:33:47;95415.50;;;4.30;100.00
71457;BME280;59263;48.160;11.752;2022-11-20T03:36:14;95408.28;;;4.12;100.00
71457;BME280;59263;48.160;11.752;2022-11-20T03:38:41;95425.06;;;4.28;100.00
71457;BME280;59263;48.160;11.752;2022-11-20T03:41:10;95426.00;;;4.27;100.00
71457;BME280;59263;48.160;11.752;2022-11-20T03:43:36;95427.63;;;4.28;100.00
71457;BME280;59263;48.160;11.752;2022-11-20T03:46:02;95418.56;;;4.35;100.00
71457;BME280;59263;48.160;11.752;2022-11-20T03:48:28;95410.63;;;4.27;100.00
71457;BME280;59263;48.160;11.752;2022-11-20T03:51:13;95420.63;;;4.30;100.00
71457;BME280;59263;48.160;11.752;2022-11-20T03:53:43;95418.56;;;4.35;100.00
71457;BME280;59263;48.160;11.752;2022-11-20T03:56:09;95424.72;;;4.32;100.00
71457;BME280;59263;48.160;11.752;2022-11-20T03:58:36;95405.50;;;4.16;100.00
71457;BME280;59263;48.160;11.752;2022-11-20T04:01:09;95423.19;;;4.30;100.00
71457;BME280;59263;48.160;11.752;2022-11-20T04:03:35;95398.94;;;4.11;100.00
71457;BME280;59263;48.160;11.752;2022-11-20T04:06:03;95427.72;;;4.26;100.00
71457;BME280;59263;48.160;11.752;2022-11-20T04:08:30;95421.69;;;4.27;100.00
71457;BME280;59263;48.160;11.752;2022-11-20T04:10:55;95383.56;;;4.00;100.00
71457;BME280;59263;48.160;11.752;2022-11-20T04:13:20;95398.03;;;4.12;100.00
71457;BME280;59263;48.160;11.752;2022-11-20T04:15:46;95426.44;;;4.21;100.00
71457;BME280;59263;48.160;11.752;2022-11-20T04:18:11;95426.09;;;4.25;100.00
71457;BME280;59263;48.160;11.752;2022-11-20T04:20:36;95424.59;;;4.23;100.00
71457;BME280;59263;48.160;11.752;2022-11-20T04:23:02;95388.38;;;4.05;100.00
71457;BME280;59263;48.160;11.752;2022-11-20T04:25:27;95427.63;;;4.28;100.00
71457;BME280;59263;48.160;11.752;2022-11-20T04:27:52;95427.84;;;4.25;100.00
71457;BME280;59263;48.160;11.752;2022-11-20T04:30:17;95411.31;;;4.18;100.00
71457;BME280;59263;48.160;11.752;2022-11-20T04:32:43;95431.72;;;4.30;100.00
71457;BME280;59263;48.160;11.752;2022-11-20T04:35:08;95404.78;;;4.13;100.00
71457;BME280;59263;48.160;11.752;2022-11-20T04:37:33;95430.06;;;4.29;100.00
71457;BME280;59263;48.160;11.752;2022-11-20T04:39:59;95386.38;;;3.97;100.00
71457;BME280;59263;48.160;11.752;2022-11-20T04:42:24;95421.09;;;4.24;100.00
71457;BME280;59263;48.160;11.752;2022-11-20T04:44:56;95432.97;;;4.25;100.00
71457;BME280;59263;48.160;11.752;2022-11-20T04:47:21;95437.50;;;4.21;100.00
71457;BME280;59263;48.160;11.752;2022-11-20T04:49:47;95387.53;;;3.93;100.00
71457;BME280;59263;48.160;11.752;2022-11-20T04:52:13;95427.69;;;4.15;100.00
71457;BME280;59263;48.160;11.752;2022-11-20T04:54:38;95423.41;;;4.16;100.00
71457;BME280;59263;48.160;11.752;2022-11-20T04:57:04;95398.13;;;4.00;100.00
71457;BME280;59263;48.160;11.752;2022-11-20T04:59:29;95432.81;;;4.15;100.00
71457;BME280;59263;48.160;11.752;2022-11-20T05:01:54;95423.41;;;4.16;100.00
71457;BME280;59263;48.160;11.752;2022-11-20T05:07:38;95428.97;;;4.09;100.00
71457;BME280;59263;48.160;11.752;2022-11-20T05:10:04;95427.09;;;4.11;100.00
71457;BME280;59263;48.160;11.752;2022-11-20T05:12:29;95420.84;;;4.04;100.00
71457;BME280;59263;48.160;11.752;2022-11-20T05:14:55;95428.53;;;4.16;100.00
71457;BME280;59263;48.160;11.752;2022-11-20T05:17:20;95426.06;;;4.14;100.00
71457;BME280;59263;48.160;11.752;2022-11-20T05:19:45;95438.53;;;4.19;100.00
71457;BME280;59263;48.160;11.752;2022-11-20T05:22:11;95438.31;;;4.22;100.00
71457;BME280;59263;48.160;11.752;2022-11-20T05:24:36;95440.19;;;4.20;100.00
71457;BME280;59263;48.160;11.752;2022-11-20T05:27:01;95433.41;;;4.19;100.00
71457;BME280;59263;48.160;11.752;2022-11-20T05:29:27;95436.91;;;4.18;100.00
71457;BME280;59263;48.160;11.752;2022-11-20T05:31:52;95401.03;;;3.95;100.00
71457;BME280;59263;48.160;11.752;2022-11-20T05:34:17;95430.38;;;4.13;100.00
71457;BME280;59263;48.160;11.752;2022-11-20T05:36:42;95440.06;;;4.21;100.00
71457;BME280;59263;48.160;11.752;2022-11-20T05:39:08;95440.28;;;4.18;100.00
71457;BME280;59263;48.160;11.752;2022-11-20T05:41:33;95415.13;;;4.01;100.00
71457;BME280;59263;48.160;11.752;2022-11-20T05:43:58;95440.19;;;4.20;100.00
71457;BME280;59263;48.160;11.752;2022-11-20T05:46:24;95447.16;;;4.18;100.00
71457;BME280;59263;48.160;11.752;2022-11-20T05:48:50;95422.91;;;3.99;100.00
71457;BME280;59263;48.160;11.752;2022-11-20T05:51:17;95428.25;;;4.07;100.00
71457;BME280;59263;48.160;11.752;2022-11-20T05:53:43;95431.19;;;4.14;100.00
71457;BME280;59263;48.160;11.752;2022-11-20T05:56:11;95428.75;;;4.12;100.00
71457;BME280;59263;48.160;11.752;2022-11-20T05:58:37;95405.91;;;3.98;100.00
71457;BME280;59263;48.160;11.752;2022-11-20T06:01:05;95436.47;;;4.24;100.00
71457;BME280;59263;48.160;11.752;2022-11-20T06:03:30;95438.09;;;4.25;100.00
71457;BME280;59263;48.160;11.752;2022-11-20T06:05:55;95406.50;;;4.02;100.00
71457;BME280;59263;48.160;11.752;2022-11-20T06:08:23;95445.09;;;4.23;100.00
71457;BME280;59263;48.160;11.752;2022-11-20T06:10:48;95423.28;;;4.06;100.00
71457;BME280;59263;48.160;11.752;2022-11-20T06:13:13;95444.97;;;4.24;100.00
71457;BME280;59263;48.160;11.752;2022-11-20T06:15:39;95431.78;;;4.18;100.00
71457;BME280;59263;48.160;11.752;2022-11-20T06:18:04;95424.91;;;4.07;100.00
71457;BME280;59263;48.160;11.752;2022-11-20T06:20:29;95436.09;;;4.17;100.00
71457;BME280;59263;48.160;11.752;2022-11-20T06:22:54;95432.00;;;4.15;100.00
71457;BME280;59263;48.160;11.752;2022-11-20T06:25:20;95408.69;;;3.95;100.00
71457;BME280;59263;48.160;11.752;2022-11-20T06:27:45;95417.56;;;4.02;100.00
71457;BME280;59263;48.160;11.752;2022-11-20T06:30:11;95437.34;;;4.11;100.00
71457;BME280;59263;48.160;11.752;2022-11-20T06:32:36;95434.53;;;4.03;100.00
71457;BME280;59263;48.160;11.752;2022-11-20T06:35:02;95438.25;;;3.99;100.00
71457;BME280;59263;48.160;11.752;2022-11-20T06:37:27;95443.59;;;3.96;100.00
71457;BME280;59263;48.160;11.752;2022-11-20T06:39:52;95411.78;;;3.76;100.00
71457;BME280;59263;48.160;11.752;2022-11-20T06:42:18;95416.09;;;3.76;100.00
71457;BME280;59263;48.160;11.752;2022-11-20T06:44:43;95427.75;;;3.80;100.00
71457;BME280;59263;48.160;11.752;2022-11-20T06:47:08;95449.78;;;3.94;100.00
71457;BME280;59263;48.160;11.752;2022-11-20T06:49:34;95454.28;;;3.90;100.00
71457;BME280;59263;48.160;11.752;2022-11-20T06:51:59;95441.47;;;3.79;100.00
71457;BME280;59263;48.160;11.752;2022-11-20T06:54:25;95450.53;;;3.83;100.00
71457;BME280;59263;48.160;11.752;2022-11-20T06:56:50;95458.94;;;3.96;100.00
71457;BME280;59263;48.160;11.752;2022-11-20T06:59:15;95458.94;;;3.96;100.00
71457;BME280;59263;48.160;11.752;2022-11-20T07:01:41;95468.31;;;4.08;100.00
71457;BME280;59263;48.160;11.752;2022-11-20T07:04:06;95448.97;;;3.93;100.00
71457;BME280;59263;48.160;11.752;2022-11-20T07:06:31;95445.69;;;3.91;100.00
71457;BME280;59263;48.160;11.752;2022-11-20T07:08:57;95437.06;;;3.92;100.00
71457;BME280;59263;48.160;11.752;2022-11-20T07:11:22;95471.13;;;4.17;100.00
71457;BME280;59263;48.160;11.752;2022-11-20T07:13:48;95438.84;;;4.03;100.00
71457;BME280;59263;48.160;11.752;2022-11-20T07:16:13;95469.50;;;4.16;100.00
71457;BME280;59263;48.160;11.752;2022-11-20T07:18:39;95446.31;;;4.06;100.00
71457;BME280;59263;48.160;11.752;2022-11-20T07:21:07;95470.13;;;4.30;100.00
71457;BME280;59263;48.160;11.752;2022-11-20T07:23:33;95473.28;;;4.34;100.00
71457;BME280;59263;48.160;11.752;2022-11-20T07:26:02;95483.63;;;4.44;100.00
71457;BME280;59263;48.160;11.752;2022-11-20T07:28:28;95448.53;;;4.22;100.00
71457;BME280;59263;48.160;11.752;2022-11-20T07:30:53;95472.22;;;4.36;100.00
71457;BME280;59263;48.160;11.752;2022-11-20T07:33:19;95446.94;;;4.21;100.00
71457;BME280;59263;48.160;11.752;2022-11-20T07:35:45;95479.09;;;4.47;100.00
71457;BME280;59263;48.160;11.752;2022-11-20T07:38:10;95487.81;;;4.45;100.00
71457;BME280;59263;48.160;11.752;2022-11-20T07:40:35;95453.44;;;4.25;100.00
71457;BME280;59263;48.160;11.752;2022-11-20T07:43:01;95480.13;;;4.45;100.00
71457;BME280;59263;48.160;11.752;2022-11-20T07:45:26;95483.19;;;4.50;100.00
71457;BME280;59263;48.160;11.752;2022-11-20T07:47:51;95466.72;;;4.41;100.00
71457;BME280;59263;48.160;11.752;2022-11-20T07:50:17;95477.94;;;4.51;100.00
71457;BME280;59263;48.160;11.752;2022-11-20T07:52:43;95461.75;;;4.40;100.00
71457;BME280;59263;48.160;11.752;2022-11-20T07:55:09;95474.22;;;4.55;100.00
71457;BME280;59263;48.160;11.752;2022-11-20T07:57:34;95476.78;;;4.55;100.00
71457;BME280;59263;48.160;11.752;2022-11-20T08:00:00;95461.28;;;4.46;100.00
71457;BME280;59263;48.160;11.752;2022-11-20T08:02:25;95431.22;;;4.36;100.00
71457;BME280;59263;48.160;11.752;2022-11-20T08:04:53;95445.22;;;4.44;100.00
71457;BME280;59263;48.160;11.752;2022-11-20T08:07:19;95472.38;;;4.57;100.00
71457;BME280;59263;48.160;11.752;2022-11-20T08:09:44;95481.34;;;4.74;100.00
71457;BME280;59263;48.160;11.752;2022-11-20T08:12:17;95474.94;;;4.69;100.00
71457;BME280;59263;48.160;11.752;2022-11-20T08:15:03;95480.28;;;4.77;100.00
71457;BME280;59263;48.160;11.752;2022-11-20T08:17:29;95479.34;;;4.78;100.00
71457;BME280;59263;48.160;11.752;2022-11-20T08:19:54;95479.13;;;4.81;100.00
71457;BME280;59263;48.160;11.752;2022-11-20T08:22:19;95467.13;;;4.81;100.00
71457;BME280;59263;48.160;11.752;2022-11-20T08:24:45;95481.22;;;4.76;100.00
71457;BME280;59263;48.160;11.752;2022-11-20T08:27:10;95466.09;;;4.73;100.00
71457;BME280;59263;48.160;11.752;2022-11-20T08:29:36;95480.28;;;4.77;100.00
71457;BME280;59263;48.160;11.752;2022-11-20T08:32:01;95480.66;;;4.83;100.00
71457;BME280;59263;48.160;11.752;2022-11-20T08:34:29;95418.06;;;4.41;100.00
71457;BME280;59263;48.160;11.752;2022-11-20T08:36:55;95460.03;;;4.74;100.00
71457;BME280;59263;48.160;11.752;2022-11-20T08:39:20;95463.75;;;4.81;100.00
71457;BME280;59263;48.160;11.752;2022-11-20T08:41:49;95485.91;;;4.93;100.00
71457;BME280;59263;48.160;11.752;2022-11-20T08:44:14;95478.66;;;4.87;100.00
71457;BME280;59263;48.160;11.752;2022-11-20T08:46:41;95477.28;;;4.94;100.00
71457;BME280;59263;48.160;11.752;2022-11-20T08:49:10;95491.72;;;5.06;100.00
71457;BME280;59263;48.160;11.752;2022-11-20T08:51:36;95469.59;;;4.94;100.00
71457;BME280;59263;48.160;11.752;2022-11-20T08:54:03;95480.06;;;5.02;100.00
71457;BME280;59263;48.160;11.752;2022-11-20T08:56:28;95482.03;;;5.10;100.00
71457;BME280;59263;48.160;11.752;2022-11-20T08:58:54;95471.06;;;4.97;100.00
71457;BME280;59263;48.160;11.752;2022-11-20T09:01:20;95475.06;;;5.12;100.00
71457;BME280;59263;48.160;11.752;2022-11-20T09:03:46;95467.47;;;5.10;100.00
71457;BME280;59263;48.160;11.752;2022-11-20T09:06:12;95451.72;;;5.04;100.00
71457;BME280;59263;48.160;11.752;2022-11-20T09:08:38;95483.63;;;5.33;100.00
71457;BME280;59263;48.160;11.752;2022-11-20T09:11:04;95476.31;;;5.29;100.00
71457;BME280;59263;48.160;11.752;2022-11-20T09:13:30;95476.31;;;5.29;100.00
71457;BME280;59263;48.160;11.752;2022-11-20T09:15:57;95467.59;;;5.20;100.00
71457;BME280;59263;48.160;11.752;2022-11-20T09:18:23;95462.78;;;5.27;100.00
71457;BME280;59263;48.160;11.752;2022-11-20T09:20:49;95464.41;;;5.28;100.00
71457;BME280;59263;48.160;11.752;2022-11-20T09:23:15;95473.72;;;5.40;100.00
71457;BME280;59263;48.160;11.752;2022-11-20T09:25:41;95442.28;;;5.27;100.00
71457;BME280;59263;48.160;11.752;2022-11-20T09:28:07;95445.75;;;5.26;100.00
71457;BME280;59263;48.160;11.752;2022-11-20T09:30:33;95461.13;;;5.37;100.00
71457;BME280;59263;48.160;11.752;2022-11-20T09:32:58;95472.19;;;5.49;100.00
71457;BME280;59263;48.160;11.752;2022-11-20T09:35:33;95472.19;;;5.49;100.00
71457;BME280;59263;48.160;11.752;2022-11-20T09:38:04;95456.53;;;5.52;100.00
71457;BME280;59263;48.160;11.752;2022-11-20T09:40:30;95448.97;;;5.50;100.00
71457;BME280;59263;48.160;11.752;2022-11-20T09:43:01;95449.66;;;5.64;100.00
71457;BME280;59263;48.160;11.752;2022-11-20T09:45:37;95454.75;;;5.75;100.00
71457;BME280;59263;48.160;11.752;2022-11-20T09:54:19;95438.38;;;5.76;100.00
71457;BME280;59263;48.160;11.752;2022-11-20T09:56:53;95432.44;;;5.75;100.00
71457;BME280;59263;48.160;11.752;2022-11-20T09:59:38;95434.03;;;5.88;100.00
71457;BME280;59263;48.160;11.752;2022-11-20T10:04:53;95443.41;;;6.10;100.00
71457;BME280;59263;48.160;11.752;2022-11-20T10:10:31;95375.16;;;5.75;100.00
71457;BME280;59263;48.160;11.752;2022-11-20T10:13:12;95436.81;;;6.17;100.00
71457;BME280;59263;48.160;11.752;2022-11-20T10:19:27;95402.47;;;6.18;100.00
71457;BME280;59263;48.160;11.752;2022-11-20T10:30:21;95417.50;;;6.43;100.00
71457;BME280;59263;48.160;11.752;2022-11-20T10:32:55;95432.19;;;6.62;100.00
71457;BME280;59263;48.160;11.752;2022-11-20T10:35:28;95411.47;;;6.54;100.00
71457;BME280;59263;48.160;11.752;2022-11-20T10:38:02;95427.78;;;6.74;100.00
71457;BME280;59263;48.160;11.752;2022-11-20T10:40:49;95387.00;;;6.60;100.00
71457;BME280;59263;48.160;11.752;2022-11-20T10:43:28;95344.19;;;6.39;100.00
71457;BME280;59263;48.160;11.752;2022-11-20T10:46:01;95399.00;;;6.80;100.00
71457;BME280;59263;48.160;11.752;2022-11-20T10:48:28;95421.63;;;6.96;100.00
71457;BME280;59263;48.160;11.752;2022-11-20T10:51:10;95372.75;;;6.86;100.00
71457;BME280;59263;48.160;11.752;2022-11-20T10:56:45;95339.16;;;6.68;100.00
71457;BME280;59263;48.160;11.752;2022-11-20T11:01:55;95381.66;;;6.82;100.00
71457;BME280;59263;48.160;11.752;2022-11-20T11:07:25;95390.91;;;6.94;100.00
71457;BME280;59263;48.160;11.752;2022-11-20T11:09:56;95388.00;;;6.78;100.00
71457;BME280;59263;48.160;11.752;2022-11-20T11:12:24;95390.31;;;6.71;100.00
71457;BME280;59263;48.160;11.752;2022-11-20T11:14:52;95352.06;;;6.47;100.00
71457;BME280;59263;48.160;11.752;2022-11-20T11:22:32;95373.81;;;6.43;100.00
71457;BME280;59263;48.160;11.752;2022-11-20T11:24:59;95400.28;;;6.65;100.00
71457;BME280;59263;48.160;11.752;2022-11-20T11:27:24;95367.06;;;6.52;100.00
71457;BME280;59263;48.160;11.752;2022-11-20T11:29:49;95373.78;;;6.74;100.00
71457;BME280;59263;48.160;11.752;2022-11-20T11:32:18;95394.16;;;6.96;100.00
71457;BME280;59263;48.160;11.752;2022-11-20T11:34:44;95374.13;;;6.90;100.00
71457;BME280;59263;48.160;11.752;2022-11-20T11:37:15;95387.94;;;6.99;100.00
71457;BME280;59263;48.160;11.752;2022-11-20T11:39:43;95368.72;;;7.03;100.00
71457;BME280;59263;48.160;11.752;2022-11-20T11:42:13;95356.78;;;6.92;100.00
71457;BME280;59263;48.160;11.752;2022-11-20T11:44:46;95355.47;;;6.98;100.00
71457;BME280;59263;48.160;11.752;2022-11-20T11:47:46;95368.06;;;7.11;100.00
71457;BME280;59263;48.160;11.752;2022-11-20T11:55:29;95364.38;;;7.03;100.00
71457;BME280;59263;48.160;11.752;2022-11-20T11:58:06;95373.22;;;7.11;100.00
71457;BME280;59263;48.160;11.752;2022-11-20T12:00:35;95341.06;;;6.76;100.00
71457;BME280;59263;48.160;11.752;2022-11-20T12:03:24;95364.38;;;6.94;100.00
71457;BME280;59263;48.160;11.752;2022-11-20T12:05:55;95351.78;;;7.00;100.00
71457;BME280;59263;48.160;11.752;2022-11-20T12:11:20;95373.06;;;7.02;100.00
71457;BME280;59263;48.160;11.752;2022-11-20T12:16:35;95354.06;;;6.84;100.00
71457;BME280;59263;48.160;11.752;2022-11-20T12:19:01;95363.28;;;6.87;100.00
71457;BME280;59263;48.160;11.752;2022-11-20T12:24:42;95394.25;;;6.85;100.00
71457;BME280;59263;48.160;11.752;2022-11-20T12:30:17;95382.00;;;5.53;100.00
71457;BME280;59263;48.160;11.752;2022-11-20T12:38:51;95406.09;;;5.30;100.00
71457;BME280;59263;48.160;11.752;2022-11-20T12:41:42;95405.47;;;5.49;100.00
71457;BME280;59263;48.160;11.752;2022-11-20T12:44:57;95394.56;;;5.68;100.00
71457;BME280;59263;48.160;11.752;2022-11-20T13:07:07;95377.34;;;6.00;100.00
71457;BME280;59263;48.160;11.752;2022-11-20T13:09:40;95374.41;;;5.84;100.00
71457;BME280;59263;48.160;11.752;2022-11-20T13:17:37;95343.97;;;5.58;100.00
71457;BME280;59263;48.160;11.752;2022-11-20T13:20:13;95370.28;;;5.72;100.00
71457;BME280;59263;48.160;11.752;2022-11-20T13:22:53;95383.78;;;5.74;100.00
71457;BME280;59263;48.160;11.752;2022-11-20T13:25:40;95377.44;;;5.78;100.00
71457;BME280;59263;48.160;11.752;2022-11-20T13:30:35;95385.53;;;5.73;100.00
71457;BME280;59263;48.160;11.752;2022-11-20T13:33:20;95380.59;;;5.61;100.00
71457;BME280;59263;48.160;11.752;2022-11-20T13:36:02;95357.66;;;5.48;100.00
71457;BME280;59263;48.160;11.752;2022-11-20T13:38:39;95358.22;;;5.51;100.00
71457;BME280;59263;48.160;11.752;2022-11-20T13:41:10;95347.63;;;5.45;100.00
71457;BME280;59263;48.160;11.752;2022-11-20T13:46:43;95358.16;;;5.42;100.00
71457;BME280;59263;48.160;11.752;2022-11-20T13:49:26;95356.06;;;5.36;100.00
71457;BME280;59263;48.160;11.752;2022-11-20T14:02:02;95364.50;;;5.58;100.00
71457;BME280;59263;48.160;11.752;2022-11-20T14:04:33;95366.38;;;5.56;100.00
71457;BME280;59263;48.160;11.752;2022-11-20T14:07:00;95372.66;;;5.64;100.00
71457;BME280;59263;48.160;11.752;2022-11-20T14:09:28;95373.47;;;5.64;100.00
71457;BME280;59263;48.160;11.752;2022-11-20T14:11:53;95369.38;;;5.62;100.00
71457;BME280;59263;48.160;11.752;2022-11-20T14:14:21;95373.47;;;5.64;100.00
71457;BME280;59263;48.160;11.752;2022-11-20T14:16:49;95369.81;;;5.67;100.00
71457;BME280;59263;48.160;11.752;2022-11-20T14:19:24;95368.91;;;5.68;100.00
71457;BME280;59263;48.160;11.752;2022-11-20T14:24:39;95370.75;;;5.66;100.00
71457;BME280;59263;48.160;11.752;2022-11-20T14:27:04;95367.88;;;5.59;100.00
71457;BME280;59263;48.160;11.752;2022-11-20T14:29:35;95367.53;;;5.64;100.00
71457;BME280;59263;48.160;11.752;2022-11-20T14:32:02;95367.53;;;5.64;100.00
71457;BME280;59263;48.160;11.752;2022-11-20T14:34:30;95371.81;;;5.63;100.00
71457;BME280;59263;48.160;11.752;2022-11-20T14:36:59;95365.88;;;5.63;100.00
71457;BME280;59263;48.160;11.752;2022-11-20T14:39:31;95365.88;;;5.63;100.00
71457;BME280;59263;48.160;11.752;2022-11-20T14:41:57;95363.31;;;5.63;100.00
71457;BME280;59263;48.160;11.752;2022-11-20T14:44:29;95368.06;;;5.67;100.00
71457;BME280;59263;48.160;11.752;2022-11-20T14:46:57;95346.41;;;5.60;100.00
71457;BME280;59263;48.160;11.752;2022-11-20T14:49:24;95361.44;;;5.65;100.00
71457;BME280;59263;48.160;11.752;2022-11-20T14:51:59;95352.13;;;5.64;100.00